Time;durP1;ratioP1;P1;durP2;ratioP2;P2;SDS_P1;SDS_P2;PMS_P1;PMS_P2;Temp;Humidity;BMP_temperature;BMP_pressure;BME280_temperature;BME280_humidity;BME280_pressure;Samples;Min_cycle;Max_cycle;Signal;HPM_P1;HPM_P2
2022/11/29 00:00:30;;;;;;;30.23;27.90;;;9.50;99.90;;;;;;10273934;28;20224;-79
2022/11/29 00:05:34;;;;;;;30.53;28.10;;;9.50;99.90;;;;;;10278727;28;20200;-79
2022/11/29 00:10:36;;;;;;;30.77;28.27;;;9.40;99.90;;;;;;10294565;28;20311;-80
2022/11/29 00:15:40;;;;;;;33.67;31.03;;;9.40;99.90;;;;;;10283199;28;20244;-79
2022/11/29 00:20:42;;;;;;;30.10;27.43;;;9.40;99.90;;;;;;10264387;28;20299;-79
2022/11/29 00:25:44;;;;;;;34.20;31.30;;;9.40;99.90;;;;;;10272021;28;20629;-79
2022/11/29 00:30:48;;;;;;;31.97;29.30;;;9.40;99.90;;;;;;10282429;28;20220;-79
2022/11/29 00:35:50;;;;;;;31.07;28.67;;;9.50;99.90;;;;;;10290542;28;20201;-79
2022/11/29 00:40:52;;;;;;;30.27;27.77;;;9.50;99.90;;;;;;10279429;28;20318;-80
2022/11/29 00:45:55;;;;;;;31.83;29.40;;;9.50;99.90;;;;;;10275076;28;20296;-80
2022/11/29 00:50:57;;;;;;;31.10;28.60;;;9.50;99.90;;;;;;10249901;29;20244;-79
2022/11/29 00:56:00;;;;;;;32.33;29.33;;;9.50;99.90;;;;;;10281067;28;20211;-79
2022/11/29 01:01:04;;;;;;;29.83;27.33;;;9.50;99.90;;;;;;10271419;28;20585;-79
2022/11/29 01:06:08;;;;;;;32.10;29.27;;;9.60;99.90;;;;;;10280357;28;20227;-79
2022/11/29 01:11:13;;;;;;;31.00;28.40;;;9.60;99.90;;;;;;10273557;28;20300;-80
2022/11/29 01:16:17;;;;;;;29.33;27.03;;;9.50;99.90;;;;;;10254439;28;20204;-80
2022/11/29 01:21:21;;;;;;;31.47;28.93;;;9.50;99.90;;;;;;10262496;28;20232;-79
2022/11/29 01:26:25;;;;;;;32.47;29.50;;;9.50;99.90;;;;;;10288816;28;20287;-80
2022/11/29 01:31:31;;;;;;;30.37;27.90;;;9.60;99.90;;;;;;10289118;28;20701;-80
2022/11/29 01:36:33;;;;;;;28.93;26.63;;;9.60;99.90;;;;;;10271899;28;20651;-80
2022/11/29 01:41:36;;;;;;;28.20;26.00;;;9.60;99.90;;;;;;10272572;28;20267;-80
2022/11/29 01:46:42;;;;;;;29.80;27.30;;;9.60;99.90;;;;;;10290160;28;20200;-80
2022/11/29 01:51:48;;;;;;;27.10;25.00;;;9.60;99.90;;;;;;10291916;28;20626;-79
2022/11/29 01:56:52;;;;;;;28.23;25.93;;;9.60;99.90;;;;;;10291805;28;20220;-79
2022/11/29 02:02:03;;;;;;;27.00;24.80;;;9.60;99.90;;;;;;10285653;28;20254;-79
2022/11/29 02:07:06;;;;;;;28.33;26.17;;;9.60;99.90;;;;;;10285191;28;20235;-79
2022/11/29 02:12:21;;;;;;;29.33;27.03;;;9.60;99.90;;;;;;10286057;28;20224;-79
2022/11/29 02:17:32;;;;;;;27.60;25.40;;;9.70;99.90;;;;;;10266597;28;20214;-80
2022/11/29 02:22:41;;;;;;;27.23;25.00;;;9.60;99.90;;;;;;10284837;28;20303;-79
2022/11/29 02:28:25;;;;;;;26.53;24.23;;;9.60;99.90;;;;;;10284194;28;20227;-80
2022/11/29 02:33:57;;;;;;;25.63;23.50;;;9.60;99.90;;;;;;10259109;28;20219;-79
2022/11/29 02:39:22;;;;;;;26.97;24.83;;;9.60;99.90;;;;;;10285549;28;20239;-80
2022/11/29 02:44:53;;;;;;;28.50;26.20;;;9.60;99.90;;;;;;10283078;28;20619;-80
2022/11/29 02:50:24;;;;;;;27.87;25.73;;;9.60;99.90;;;;;;10213288;29;20312;-80
2022/11/29 02:55:34;;;;;;;26.17;24.27;;;9.70;99.90;;;;;;10239039;28;20196;-80
2022/11/29 03:00:41;;;;;;;27.03;24.97;;;9.70;99.90;;;;;;10262422;28;20223;-80
2022/11/29 03:05:54;;;;;;;25.90;23.63;;;9.60;99.90;;;;;;10245693;28;20192;-79
2022/11/29 03:11:02;;;;;;;24.80;23.00;;;9.70;99.90;;;;;;10277797;28;20334;-80
2022/11/29 03:16:16;;;;;;;24.77;23.00;;;9.60;99.90;;;;;;10256840;28;20283;-80
2022/11/29 03:21:31;;;;;;;24.87;23.07;;;9.60;99.90;;;;;;10278412;28;20644;-80
2022/11/29 03:26:40;;;;;;;25.00;22.90;;;9.60;99.90;;;;;;10278047;28;20236;-80
2022/11/29 03:31:47;;;;;;;22.47;20.93;;;9.70;99.90;;;;;;10284081;28;20250;-80
2022/11/29 03:36:57;;;;;;;21.97;20.37;;;9.70;99.90;;;;;;10290527;28;20204;-79
2022/11/29 03:42:04;;;;;;;21.03;19.63;;;9.70;99.90;;;;;;10258389;28;20266;-79
2022/11/29 03:47:10;;;;;;;21.40;19.80;;;9.70;99.90;;;;;;10274607;28;20480;-80
2022/11/29 03:52:19;;;;;;;22.67;20.87;;;9.70;99.90;;;;;;10273834;28;20597;-79
2022/11/29 03:57:31;;;;;;;20.27;18.97;;;9.70;99.90;;;;;;10269044;28;20239;-80
2022/11/29 04:03:05;;;;;;;22.37;20.77;;;9.70;99.90;;;;;;10257279;28;20217;-82
2022/11/29 04:08:42;;;;;;;20.37;18.97;;;9.80;99.90;;;;;;10239805;28;20223;-82
2022/11/29 04:14:20;;;;;;;20.70;19.20;;;9.80;99.90;;;;;;10247623;28;20601;-82
2022/11/29 04:20:02;;;;;;;20.20;18.80;;;9.70;99.90;;;;;;10239404;28;20594;-82
2022/11/29 04:25:31;;;;;;;22.80;20.80;;;9.70;99.90;;;;;;10254620;28;20216;-82
2022/11/29 04:30:44;;;;;;;22.70;21.00;;;9.70;99.90;;;;;;10256647;28;20208;-81
2022/11/29 04:36:31;;;;;;;28.30;23.00;;;9.70;99.90;;;;;;10274473;28;20212;-81
2022/11/29 04:41:56;;;;;;;25.03;22.80;;;9.80;99.90;;;;;;10254790;28;20232;-80
2022/11/29 04:47:15;;;;;;;23.93;21.40;;;9.80;99.90;;;;;;10241610;28;20204;-81
2022/11/29 04:52:34;;;;;;;23.60;21.03;;;9.90;99.90;;;;;;10273468;28;20287;-81
2022/11/29 04:57:42;;;;;;;20.50;19.03;;;9.90;99.90;;;;;;10267445;28;20212;-81
2022/11/29 05:02:53;;;;;;;19.73;18.20;;;9.90;99.90;;;;;;10249994;28;20786;-81
2022/11/29 05:08:15;;;;;;;19.73;18.07;;;9.90;99.90;;;;;;10236362;28;20192;-81
2022/11/29 05:13:27;;;;;;;16.57;15.17;;;9.90;99.90;;;;;;10275431;28;20291;-80
2022/11/29 05:18:54;;;;;;;18.90;17.70;;;10.00;99.90;;;;;;10227771;28;20235;-82
2022/11/29 05:24:08;;;;;;;16.53;15.33;;;10.00;99.90;;;;;;10269320;28;20303;-81
2022/11/29 05:29:16;;;;;;;13.53;12.73;;;10.00;99.90;;;;;;10262399;28;20244;-81
2022/11/29 05:34:37;;;;;;;13.07;12.17;;;10.00;99.90;;;;;;10277552;28;20199;-83
2022/11/29 05:39:55;;;;;;;10.80;9.93;;;10.00;99.90;;;;;;10232194;28;20234;-81
2022/11/29 05:45:04;;;;;;;15.60;14.57;;;10.10;99.90;;;;;;10266173;28;20196;-81
2022/11/29 05:50:12;;;;;;;16.03;14.83;;;10.10;99.90;;;;;;10283119;28;20674;-81
2022/11/29 05:55:27;;;;;;;15.63;14.23;;;10.10;99.90;;;;;;10289110;28;20193;-81
2022/11/29 06:00:41;;;;;;;15.27;14.37;;;10.10;99.90;;;;;;10255486;28;20221;-81
2022/11/29 06:05:50;;;;;;;13.53;12.73;;;10.10;99.90;;;;;;10266364;28;20201;-80
2022/11/29 06:10:58;;;;;;;14.30;13.33;;;10.10;99.90;;;;;;10266815;28;20595;-81
2022/11/29 06:16:21;;;;;;;14.60;13.60;;;10.10;99.90;;;;;;10244303;28;20208;-81
2022/11/29 06:21:32;;;;;;;14.43;13.60;;;10.10;99.90;;;;;;10267830;28;20600;-81
2022/11/29 06:26:56;;;;;;;14.70;13.20;;;10.10;99.90;;;;;;10250655;28;20724;-81
2022/11/29 06:32:10;;;;;;;13.97;13.03;;;10.10;99.90;;;;;;10251935;28;20223;-81
2022/11/29 06:37:19;;;;;;;14.37;13.47;;;10.20;99.90;;;;;;10257231;28;20307;-81
2022/11/29 06:42:21;;;;;;;14.73;13.83;;;10.20;99.90;;;;;;10263750;28;20638;-81
2022/11/29 06:47:30;;;;;;;13.40;12.50;;;10.20;99.90;;;;;;10236168;29;20207;-80
2022/11/29 06:52:42;;;;;;;14.50;13.53;;;10.20;99.90;;;;;;10279693;28;20224;-80
2022/11/29 06:57:56;;;;;;;15.10;14.20;;;10.20;99.90;;;;;;10273060;28;20736;-81
2022/11/29 07:03:31;;;;;;;15.47;14.37;;;10.20;99.90;;;;;;10270124;28;20204;-80
2022/11/29 07:08:35;;;;;;;16.60;15.50;;;10.20;99.90;;;;;;10265967;28;20222;-81
2022/11/29 07:13:38;;;;;;;16.80;15.60;;;10.20;99.90;;;;;;10244667;29;20227;-80
2022/11/29 07:18:45;;;;;;;17.73;15.93;;;10.30;99.90;;;;;;10259631;28;20248;-80
2022/11/29 07:23:59;;;;;;;14.63;13.53;;;10.30;99.90;;;;;;10258929;28;20205;-81
2022/11/29 07:29:15;;;;;;;16.77;15.40;;;10.30;99.90;;;;;;10259169;28;20216;-81
2022/11/29 07:34:31;;;;;;;21.63;17.27;;;10.30;99.90;;;;;;10259772;28;20208;-81
2022/11/29 07:39:43;;;;;;;17.73;16.53;;;10.30;99.90;;;;;;10241149;29;20323;-81
2022/11/29 07:44:55;;;;;;;16.77;15.47;;;10.30;99.90;;;;;;10250337;28;20236;-80
2022/11/29 07:49:57;;;;;;;18.33;17.03;;;10.30;99.90;;;;;;10253313;28;20238;-79
2022/11/29 07:55:01;;;;;;;16.13;15.03;;;10.30;99.90;;;;;;10253696;28;20211;-79
2022/11/29 08:00:05;;;;;;;18.23;16.90;;;10.40;99.90;;;;;;10269342;28;20326;-79
2022/11/29 08:05:13;;;;;;;16.97;15.67;;;10.40;99.90;;;;;;10254254;28;20195;-79
2022/11/29 08:10:17;;;;;;;17.70;15.97;;;10.40;99.90;;;;;;10214199;29;20253;-79
2022/11/29 08:15:21;;;;;;;15.57;14.23;;;10.40;99.90;;;;;;10256434;29;20256;-79
2022/11/29 08:20:24;;;;;;;14.40;13.50;;;10.40;99.90;;;;;;10256936;29;20228;-80
2022/11/29 08:25:28;;;;;;;15.70;14.60;;;10.40;99.90;;;;;;10259184;29;20252;-81
2022/11/29 08:30:30;;;;;;;15.00;13.90;;;10.40;99.90;;;;;;10251811;28;20232;-82
2022/11/29 08:35:34;;;;;;;27.17;15.37;;;10.40;99.90;;;;;;10235154;29;20219;-81
2022/11/29 08:40:37;;;;;;;13.57;12.63;;;10.40;99.90;;;;;;10289857;28;20254;-80
2022/11/29 08:45:39;;;;;;;12.70;11.40;;;10.40;99.90;;;;;;10257803;28;20201;-81
2022/11/29 08:50:41;;;;;;;13.83;12.40;;;10.40;99.90;;;;;;10229312;29;20295;-79
2022/11/29 08:55:45;;;;;;;12.80;11.70;;;10.40;99.90;;;;;;10270321;28;20230;-79
2022/11/29 09:00:47;;;;;;;11.83;11.00;;;10.40;99.90;;;;;;10262403;28;20225;-79
2022/11/29 09:05:50;;;;;;;9.77;9.17;;;10.50;99.90;;;;;;10291942;28;20203;-79
2022/11/29 09:10:53;;;;;;;9.27;8.67;;;10.50;99.90;;;;;;10294225;28;20228;-79
2022/11/29 09:15:56;;;;;;;10.00;9.23;;;10.50;99.90;;;;;;10262282;28;20267;-80
2022/11/29 09:20:58;;;;;;;10.50;9.80;;;10.60;99.90;;;;;;10298061;28;20220;-82
2022/11/29 09:26:02;;;;;;;9.83;9.13;;;10.60;99.90;;;;;;10281171;28;20215;-82
2022/11/29 09:31:05;;;;;;;10.93;10.23;;;10.60;99.90;;;;;;10283489;28;20226;-83
2022/11/29 09:36:09;;;;;;;11.80;11.00;;;10.60;99.90;;;;;;10297435;28;20720;-81
2022/11/29 09:41:32;;;;;;;13.57;12.20;;;10.60;99.90;;;;;;10303266;28;20227;-80
2022/11/29 09:46:42;;;;;;;13.80;12.80;;;10.60;99.90;;;;;;10263612;28;20196;-80
2022/11/29 09:51:52;;;;;;;14.50;13.50;;;10.60;99.90;;;;;;10297090;28;20281;-80
2022/11/29 09:56:56;;;;;;;14.50;13.40;;;10.60;99.90;;;;;;10297153;28;20199;-80
2022/11/29 10:02:04;;;;;;;15.40;14.10;;;10.60;99.90;;;;;;10273471;28;20227;-80
2022/11/29 10:07:16;;;;;;;14.07;12.87;;;10.60;99.90;;;;;;10291946;28;20208;-82
2022/11/29 10:12:26;;;;;;;16.60;15.10;;;10.60;99.90;;;;;;10252582;28;20681;-81
2022/11/29 10:17:36;;;;;;;17.27;15.20;;;10.60;99.90;;;;;;10269477;28;20196;-82
2022/11/29 10:22:43;;;;;;;18.60;17.10;;;10.50;99.90;;;;;;10291177;28;20256;-82
2022/11/29 10:27:47;;;;;;;23.43;21.13;;;10.50;99.90;;;;;;10289263;28;20192;-79
2022/11/29 10:32:54;;;;;;;24.63;22.33;;;10.50;99.90;;;;;;10286678;28;20218;-80
2022/11/29 10:38:00;;;;;;;21.27;19.30;;;10.50;99.90;;;;;;10286181;28;20211;-79
2022/11/29 10:43:04;;;;;;;21.93;20.03;;;10.50;99.90;;;;;;10286348;28;20255;-79
2022/11/29 10:48:11;;;;;;;23.40;21.03;;;10.50;99.90;;;;;;10266387;28;20201;-80
2022/11/29 10:53:15;;;;;;;25.03;22.57;;;10.50;99.90;;;;;;10272842;28;20826;-79
2022/11/29 10:58:23;;;;;;;21.50;19.53;;;10.60;99.90;;;;;;10251577;28;20315;-80
2022/11/29 11:03:29;;;;;;;21.00;18.80;;;10.60;99.90;;;;;;10276739;28;20219;-79
2022/11/29 11:08:32;;;;;;;19.23;17.53;;;10.60;99.90;;;;;;10255531;28;20283;-80
2022/11/29 11:13:36;;;;;;;18.67;17.00;;;10.60;99.90;;;;;;10267975;28;20235;-80
2022/11/29 11:18:38;;;;;;;17.70;16.00;;;10.70;99.90;;;;;;10254695;28;20275;-82
2022/11/29 11:23:50;;;;;;;17.37;15.80;;;10.70;99.90;;;;;;10276296;28;20207;-79
2022/11/29 11:28:58;;;;;;;18.27;16.47;;;10.70;99.90;;;;;;10267457;28;20320;-80
2022/11/29 11:34:26;;;;;;;19.23;17.43;;;10.60;99.90;;;;;;10272274;28;20200;-79
2022/11/29 11:39:32;;;;;;;21.17;18.97;;;10.70;99.90;;;;;;10252279;28;20307;-79
2022/11/29 11:44:39;;;;;;;18.10;16.53;;;10.70;99.90;;;;;;10253000;28;20565;-79
2022/11/29 11:49:48;;;;;;;19.90;18.10;;;10.70;99.90;;;;;;10269123;28;20283;-80
2022/11/29 11:54:54;;;;;;;19.17;17.57;;;10.70;99.90;;;;;;10259878;28;20224;-80
2022/11/29 11:59:58;;;;;;;18.53;16.83;;;10.70;99.90;;;;;;10257477;28;20227;-80
2022/11/29 12:05:04;;;;;;;20.43;18.43;;;10.70;99.90;;;;;;10255491;28;20211;-80
2022/11/29 12:10:15;;;;;;;20.67;19.00;;;10.70;99.90;;;;;;10231312;28;20220;-79
2022/11/29 12:15:21;;;;;;;18.83;17.27;;;10.70;99.90;;;;;;10251943;28;20197;-80
2022/11/29 12:20:27;;;;;;;19.00;17.50;;;10.60;99.90;;;;;;10258779;28;20492;-79
2022/11/29 12:25:34;;;;;;;16.00;14.80;;;10.60;99.90;;;;;;10247143;28;20214;-79
2022/11/29 12:30:38;;;;;;;16.93;15.67;;;10.60;99.90;;;;;;10262971;28;20220;-79
2022/11/29 12:36:04;;;;;;;13.77;12.83;;;10.60;99.90;;;;;;10260974;28;20207;-82
2022/11/29 12:41:19;;;;;;;14.43;13.43;;;10.60;99.90;;;;;;10265534;28;20212;-81
2022/11/29 12:46:25;;;;;;;14.27;13.17;;;10.50;99.90;;;;;;10277208;28;20203;-81
2022/11/29 12:51:40;;;;;;;16.20;15.00;;;10.50;99.90;;;;;;10268842;28;20764;-79
2022/11/29 12:56:50;;;;;;;14.70;13.70;;;10.50;99.90;;;;;;10280664;28;20211;-79
2022/11/29 13:02:11;;;;;;;16.00;14.80;;;10.50;99.90;;;;;;10276966;28;20302;-79
2022/11/29 13:07:23;;;;;;;15.87;14.57;;;10.40;99.90;;;;;;10282726;28;20246;-81
2022/11/29 13:12:33;;;;;;;17.67;16.37;;;10.40;99.90;;;;;;10294408;28;20254;-81
2022/11/29 13:17:45;;;;;;;18.20;16.80;;;10.40;99.90;;;;;;10267852;28;20223;-80
2022/11/29 13:22:54;;;;;;;18.07;16.67;;;10.40;99.90;;;;;;10287493;28;20223;-81
2022/11/29 13:28:00;;;;;;;18.10;16.70;;;10.40;99.90;;;;;;10271274;28;20271;-82
2022/11/29 13:33:14;;;;;;;17.60;16.30;;;10.40;99.90;;;;;;10279188;28;20200;-80
2022/11/29 13:38:21;;;;;;;21.73;17.00;;;10.40;99.90;;;;;;10261124;28;20196;-81
2022/11/29 13:43:29;;;;;;;17.83;16.53;;;10.40;99.90;;;;;;10261341;28;20596;-81
2022/11/29 13:48:47;;;;;;;16.90;15.70;;;10.30;99.90;;;;;;10263729;28;20236;-80
2022/11/29 13:53:49;;;;;;;20.13;18.63;;;10.30;99.90;;;;;;10245414;28;20298;-81
2022/11/29 13:58:53;;;;;;;16.10;15.00;;;10.30;99.90;;;;;;10242497;28;20220;-80
2022/11/29 14:04:06;;;;;;;17.70;16.60;;;10.30;99.90;;;;;;10266934;28;20200;-80
2022/11/29 14:09:21;;;;;;;17.27;15.97;;;10.30;99.90;;;;;;10256921;29;20244;-81
2022/11/29 14:14:27;;;;;;;18.10;16.83;;;10.20;99.90;;;;;;10242503;29;20248;-81
2022/11/29 14:19:32;;;;;;;18.20;16.90;;;10.20;99.90;;;;;;10270451;28;20594;-80
2022/11/29 14:24:41;;;;;;;18.77;17.47;;;10.20;99.90;;;;;;10252624;28;20205;-82
2022/11/29 14:29:53;;;;;;;19.43;18.07;;;10.10;99.90;;;;;;10270599;28;20704;-83
2022/11/29 14:35:01;;;;;;;20.43;19.07;;;10.10;99.90;;;;;;10244478;29;20203;-81
2022/11/29 14:40:18;;;;;;;20.73;19.30;;;10.00;99.90;;;;;;10245472;29;20232;-81
2022/11/29 14:45:26;;;;;;;18.50;17.10;;;10.00;99.90;;;;;;10250710;29;20208;-80
2022/11/29 14:50:33;;;;;;;19.97;18.37;;;10.00;99.90;;;;;;10268170;28;20615;-82
2022/11/29 14:55:37;;;;;;;22.77;21.10;;;9.90;99.90;;;;;;10262503;28;20682;-81
2022/11/29 15:00:51;;;;;;;19.70;18.40;;;9.90;99.90;;;;;;10266555;28;20541;-81
2022/11/29 15:05:59;;;;;;;20.43;19.13;;;9.90;99.90;;;;;;10266638;28;20204;-83
2022/11/29 15:11:04;;;;;;;20.60;19.30;;;9.90;99.90;;;;;;10265127;28;20225;-82
2022/11/29 15:16:21;;;;;;;21.00;19.70;;;9.90;99.90;;;;;;10265723;28;20295;-81
2022/11/29 15:21:34;;;;;;;19.80;18.60;;;9.90;99.90;;;;;;10248003;29;20307;-83
2022/11/29 15:26:36;;;;;;;20.60;19.30;;;9.90;99.90;;;;;;10270256;28;20224;-81
2022/11/29 15:31:41;;;;;;;20.53;19.00;;;9.90;99.90;;;;;;10273772;28;20212;-81
2022/11/29 15:36:44;;;;;;;28.77;26.00;;;9.80;99.90;;;;;;10262119;28;20341;-80
2022/11/29 15:41:46;;;;;;;18.30;16.80;;;9.80;99.90;;;;;;10261424;28;20287;-81
2022/11/29 15:46:48;;;;;;;19.37;18.03;;;9.80;99.90;;;;;;10261166;28;20205;-81
2022/11/29 15:51:56;;;;;;;21.63;20.23;;;9.70;99.90;;;;;;10260806;28;20303;-81
2022/11/29 15:57:02;;;;;;;22.77;21.27;;;9.70;99.90;;;;;;10261979;28;20227;-81
2022/11/29 16:02:15;;;;;;;18.53;17.13;;;9.70;99.90;;;;;;10253066;29;20601;-81
2022/11/29 16:07:22;;;;;;;18.90;17.40;;;9.70;99.90;;;;;;10259206;28;20188;-80
2022/11/29 16:12:25;;;;;;;19.30;17.87;;;9.70;99.90;;;;;;10241310;29;20670;-81
2022/11/29 16:17:29;;;;;;;18.10;16.80;;;9.70;99.90;;;;;;10273290;28;20275;-81
2022/11/29 16:22:32;;;;;;;22.37;20.70;;;9.70;99.90;;;;;;10264661;28;20235;-81
2022/11/29 16:27:41;;;;;;;23.13;21.43;;;9.70;99.90;;;;;;10254996;28;20236;-80
2022/11/29 16:32:46;;;;;;;23.80;22.17;;;9.70;99.90;;;;;;10233266;28;20223;-80
2022/11/29 16:37:49;;;;;;;24.77;23.00;;;9.70;99.90;;;;;;10244514;28;20202;-80
2022/11/29 16:43:07;;;;;;;23.70;21.90;;;9.70;99.90;;;;;;10245699;28;20307;-80
2022/11/29 16:48:28;;;;;;;25.50;23.77;;;9.80;99.90;;;;;;10252165;28;20279;-80
2022/11/29 16:53:36;;;;;;;21.13;19.53;;;9.90;99.90;;;;;;10249889;28;20204;-80
2022/11/29 16:58:40;;;;;;;24.47;22.57;;;9.90;99.90;;;;;;10234336;29;20244;-80
2022/11/29 17:03:42;;;;;;;25.90;24.00;;;9.90;99.90;;;;;;10250850;28;20223;-78
2022/11/29 17:08:47;;;;;;;27.77;25.37;;;9.90;99.90;;;;;;10260372;28;20271;-80
2022/11/29 17:13:50;;;;;;;21.73;20.10;;;9.90;99.90;;;;;;10238195;28;20239;-80
2022/11/29 17:18:52;;;;;;;27.17;25.07;;;9.90;99.90;;;;;;10258682;28;20229;-82
2022/11/29 17:23:56;;;;;;;26.80;24.57;;;9.90;99.90;;;;;;10280324;28;20232;-81
2022/11/29 17:28:58;;;;;;;27.83;25.53;;;9.90;99.90;;;;;;10262039;28;20291;-81
2022/11/29 17:34:00;;;;;;;29.33;26.93;;;9.90;99.90;;;;;;10273866;28;20624;-78
2022/11/29 17:39:05;;;;;;;28.00;25.50;;;9.90;99.90;;;;;;10251335;29;20248;-82
2022/11/29 17:44:07;;;;;;;29.20;26.80;;;9.90;99.90;;;;;;10275022;28;20225;-81
2022/11/29 17:49:09;;;;;;;27.90;25.40;;;9.80;99.90;;;;;;10277162;28;20236;-82
2022/11/29 17:54:13;;;;;;;29.90;27.40;;;9.80;99.90;;;;;;10274296;28;20199;-83
2022/11/29 17:59:15;;;;;;;28.50;26.03;;;9.80;99.90;;;;;;10236114;29;20283;-81
2022/11/29 18:04:17;;;;;;;27.67;24.90;;;9.80;99.90;;;;;;10241376;29;20220;-81
2022/11/29 18:09:21;;;;;;;30.73;27.90;;;9.80;99.90;;;;;;10262289;28;20723;-83
2022/11/29 18:14:26;;;;;;;30.23;27.43;;;9.80;99.90;;;;;;10265570;28;20259;-81
2022/11/29 18:19:30;;;;;;;29.37;26.50;;;9.90;99.90;;;;;;10254630;28;20275;-83
2022/11/29 18:24:33;;;;;;;30.00;27.23;;;9.90;99.90;;;;;;10286699;28;20210;-82
2022/11/29 18:29:35;;;;;;;34.60;31.20;;;9.90;99.90;;;;;;10281732;28;20220;-82
2022/11/29 18:34:37;;;;;;;32.27;29.17;;;9.90;99.90;;;;;;10251411;29;20212;-83
2022/11/29 18:39:41;;;;;;;32.97;29.57;;;9.90;99.90;;;;;;10293698;28;20247;-80
2022/11/29 18:44:43;;;;;;;31.60;28.17;;;9.90;99.90;;;;;;10264373;28;20225;-80
2022/11/29 18:49:45;;;;;;;31.33;28.13;;;9.90;99.90;;;;;;10292273;28;20216;-80
2022/11/29 18:54:48;;;;;;;33.67;30.23;;;9.90;99.90;;;;;;10276318;28;20295;-80
2022/11/29 18:59:50;;;;;;;36.67;33.00;;;9.90;99.90;;;;;;10286739;28;20227;-81
2022/11/29 19:04:52;;;;;;;33.57;30.27;;;9.90;99.90;;;;;;10260600;28;20236;-81
2022/11/29 19:09:56;;;;;;;38.27;34.13;;;9.90;99.90;;;;;;10256137;28;20239;-81
2022/11/29 19:14:58;;;;;;;31.90;28.53;;;9.90;99.90;;;;;;10280081;28;20209;-81
2022/11/29 19:20:00;;;;;;;36.37;32.70;;;9.90;99.90;;;;;;10283524;28;20212;-78
2022/11/29 19:25:04;;;;;;;32.80;29.63;;;9.90;99.90;;;;;;10281777;28;20228;-80
2022/11/29 19:30:08;;;;;;;34.73;31.10;;;9.90;99.90;;;;;;10282151;28;20633;-80
2022/11/29 19:35:10;;;;;;;34.20;30.70;;;9.90;99.90;;;;;;10235768;28;20783;-83
2022/11/29 19:40:14;;;;;;;34.83;31.37;;;9.90;99.90;;;;;;10280156;28;20291;-81
2022/11/29 19:45:17;;;;;;;34.10;30.67;;;9.80;99.90;;;;;;10270018;28;20736;-80
2022/11/29 19:50:19;;;;;;;34.63;31.23;;;9.80;99.90;;;;;;10279638;28;20216;-78
2022/11/29 19:55:22;;;;;;;33.80;30.20;;;9.90;99.90;;;;;;10279724;28;20562;-79
2022/11/29 20:00:25;;;;;;;34.87;31.10;;;9.90;99.90;;;;;;10280628;28;20228;-80
2022/11/29 20:05:27;;;;;;;34.40;30.70;;;9.90;99.90;;;;;;10244339;28;20249;-79
2022/11/29 20:10:30;;;;;;;32.93;29.63;;;9.90;99.90;;;;;;10276317;28;20262;-79
2022/11/29 20:15:32;;;;;;;33.77;30.20;;;9.90;99.90;;;;;;10263854;28;20204;-78
2022/11/29 20:20:34;;;;;;;34.60;31.00;;;9.80;99.90;;;;;;10275469;28;20254;-79
2022/11/29 20:25:38;;;;;;;48.93;41.40;;;9.80;99.90;;;;;;10270309;28;20252;-79
2022/11/29 20:30:40;;;;;;;36.10;32.33;;;9.90;99.90;;;;;;10275522;28;20207;-78
2022/11/29 20:35:42;;;;;;;34.37;30.77;;;9.90;99.90;;;;;;10276897;28;20227;-78
2022/11/29 20:40:56;;;;;;;29.60;26.40;;;9.90;99.90;;;;;;10253283;28;20275;-80
2022/11/29 20:45:58;;;;;;;31.93;28.67;;;9.90;99.90;;;;;;10273106;28;20201;-78
2022/11/29 20:51:02;;;;;;;31.30;28.20;;;9.90;99.90;;;;;;10286884;28;20607;-79
2022/11/29 20:56:06;;;;;;;32.57;29.27;;;9.80;99.90;;;;;;10255612;28;20252;-83
2022/11/29 21:01:09;;;;;;;31.77;28.57;;;9.80;99.90;;;;;;10271617;28;20390;-80
2022/11/29 21:06:11;;;;;;;32.30;28.87;;;9.80;99.90;;;;;;10265123;28;20251;-78
2022/11/29 21:11:15;;;;;;;30.87;27.80;;;9.80;99.90;;;;;;10283203;28;20220;-79
2022/11/29 21:16:18;;;;;;;32.13;28.83;;;9.80;99.90;;;;;;10264953;28;20193;-79
2022/11/29 21:21:25;;;;;;;31.93;28.73;;;9.80;99.90;;;;;;10257319;28;20569;-81
2022/11/29 21:26:32;;;;;;;32.60;29.13;;;9.80;99.90;;;;;;10286400;28;20202;-80
2022/11/29 21:31:35;;;;;;;34.70;30.07;;;9.80;99.90;;;;;;10277462;28;20219;-81
2022/11/29 21:36:38;;;;;;;31.70;28.37;;;9.80;99.90;;;;;;10293314;28;20646;-80
2022/11/29 21:41:41;;;;;;;33.60;30.00;;;9.80;99.90;;;;;;10279752;28;20216;-82
2022/11/29 21:46:43;;;;;;;31.90;28.50;;;9.80;99.90;;;;;;10278982;28;20732;-82
2022/11/29 21:51:45;;;;;;;35.13;31.20;;;9.90;99.90;;;;;;10282505;28;20225;-82
2022/11/29 21:56:48;;;;;;;32.23;28.73;;;9.90;99.90;;;;;;10246552;28;20531;-82
2022/11/29 22:01:51;;;;;;;35.90;31.13;;;9.90;99.90;;;;;;10265480;28;20604;-82
2022/11/29 22:06:53;;;;;;;38.30;33.73;;;9.90;99.90;;;;;;10256288;28;20276;-82
2022/11/29 22:11:57;;;;;;;39.80;35.40;;;9.90;99.90;;;;;;10234333;28;20771;-80
2022/11/29 22:17:01;;;;;;;37.73;33.33;;;9.90;99.90;;;;;;10243820;28;20204;-80
2022/11/29 22:22:05;;;;;;;38.30;32.17;;;9.90;99.90;;;;;;10267737;28;20221;-82
2022/11/29 22:27:08;;;;;;;38.13;34.17;;;9.90;99.90;;;;;;10274774;28;20192;-81
2022/11/29 22:32:10;;;;;;;36.70;32.47;;;9.90;99.90;;;;;;10273981;28;20217;-82
2022/11/29 22:37:12;;;;;;;35.50;31.90;;;9.90;99.90;;;;;;10272379;28;20216;-83
2022/11/29 22:42:16;;;;;;;38.67;34.57;;;9.90;99.90;;;;;;10279565;28;20240;-81
2022/11/29 22:47:18;;;;;;;42.67;37.17;;;9.90;99.90;;;;;;10271690;28;20193;-82
2022/11/29 22:52:20;;;;;;;39.23;35.23;;;9.90;99.90;;;;;;10271712;28;20571;-80
2022/11/29 22:57:23;;;;;;;43.07;36.27;;;9.90;99.90;;;;;;10269123;28;20785;-81
2022/11/29 23:02:26;;;;;;;41.13;35.97;;;9.90;99.90;;;;;;10263645;28;20253;-81
2022/11/29 23:07:28;;;;;;;42.27;35.63;;;9.90;99.90;;;;;;10268152;28;20207;-82
2022/11/29 23:12:32;;;;;;;43.67;37.10;;;9.90;99.90;;;;;;10249609;28;20715;-82
2022/11/29 23:17:34;;;;;;;46.03;36.50;;;9.80;99.90;;;;;;10266939;28;20291;-82
2022/11/29 23:22:38;;;;;;;41.23;36.80;;;9.80;99.90;;;;;;10267259;28;20229;-82
2022/11/29 23:27:41;;;;;;;39.10;35.00;;;9.80;99.90;;;;;;10250343;28;20207;-82
2022/11/29 23:32:43;;;;;;;40.20;35.83;;;9.80;99.90;;;;;;10247143;28;20323;-80
2022/11/29 23:37:45;;;;;;;38.20;34.17;;;9.80;99.90;;;;;;10251585;28;20601;-77
2022/11/29 23:42:52;;;;;;;40.37;35.50;;;9.70;99.90;;;;;;10263096;28;20390;-80
2022/11/29 23:47:54;;;;;;;42.20;36.20;;;9.70;99.90;;;;;;10261806;28;20239;-78
2022/11/29 23:52:57;;;;;;;42.33;35.90;;;9.60;99.90;;;;;;10241510;28;20623;-79
2022/11/29 23:58:02;;;;;;;41.10;36.30;;;9.70;99.90;;;;;;10260854;28;20208;-78
